Time;durP1;ratioP1;P1;durP2;ratioP2;P2;SDS_P1;SDS_P2;PMS_P1;PMS_P2;Temp;Humidity;BMP_temperature;BMP_pressure;BME280_temperature;BME280_humidity;BME280_pressure;Samples;Min_cycle;Max_cycle;Signal;HPM_P1;HPM_P2
2023/06/20 00:01:19;;;;;;;9.05;6.43;;;15.90;99.90;;;;;;6218632;23;20016;-85
2023/06/20 00:03:45;;;;;;;7.43;5.45;;;15.90;99.90;;;;;;6218415;23;20028;-85
2023/06/20 00:06:11;;;;;;;8.52;6.00;;;15.90;99.90;;;;;;6218312;23;20020;-85
2023/06/20 00:08:37;;;;;;;9.48;6.50;;;16.00;99.90;;;;;;6245731;23;20020;-85
2023/06/20 00:11:02;;;;;;;8.55;5.47;;;16.00;99.90;;;;;;6245889;23;20019;-85
2023/06/20 00:13:28;;;;;;;9.38;5.30;;;16.00;99.90;;;;;;6245593;23;20024;-85
2023/06/20 00:15:57;;;;;;;6.97;4.97;;;16.00;99.90;;;;;;6244997;23;20027;-86
2023/06/20 00:18:23;;;;;;;8.27;5.63;;;16.00;99.90;;;;;;6245725;23;20027;-85
2023/06/20 00:20:49;;;;;;;8.15;5.40;;;16.00;99.90;;;;;;6245099;23;20059;-86
2023/06/20 00:23:16;;;;;;;9.27;5.38;;;16.00;99.90;;;;;;6218521;23;20051;-85
2023/06/20 00:25:41;;;;;;;7.45;5.65;;;16.00;99.90;;;;;;6245260;23;20024;-86
2023/06/20 00:28:08;;;;;;;8.00;6.05;;;16.00;99.90;;;;;;6245604;23;20080;-86
2023/06/20 00:30:34;;;;;;;9.05;5.88;;;16.00;99.90;;;;;;6245322;23;20034;-85
2023/06/20 00:33:00;;;;;;;7.93;5.32;;;15.90;99.90;;;;;;6218831;23;20099;-85
2023/06/20 00:35:26;;;;;;;8.15;5.55;;;16.00;99.90;;;;;;6247813;23;20498;-85
2023/06/20 00:37:52;;;;;;;7.55;5.07;;;16.00;99.90;;;;;;6221483;23;20024;-85
2023/06/20 00:40:18;;;;;;;7.18;5.88;;;16.00;99.90;;;;;;6221530;22;20020;-86
2023/06/20 00:42:45;;;;;;;8.82;5.55;;;16.00;99.90;;;;;;6248547;23;20020;-85
2023/06/20 00:45:32;;;;;;;7.82;5.50;;;16.00;99.90;;;;;;6222243;23;20020;-86
2023/06/20 00:47:59;;;;;;;7.03;5.25;;;15.90;99.90;;;;;;6195920;23;20031;-86
2023/06/20 00:50:27;;;;;;;6.95;4.88;;;15.90;99.90;;;;;;6248372;23;20458;-85
2023/06/20 00:53:00;;;;;;;6.57;4.97;;;15.90;99.90;;;;;;6248417;23;20117;-87
2023/06/20 00:55:28;;;;;;;7.30;4.78;;;15.80;99.90;;;;;;6248661;23;20016;-86
2023/06/20 00:57:57;;;;;;;8.25;5.63;;;15.80;99.90;;;;;;6248420;23;20434;-86
2023/06/20 01:00:27;;;;;;;7.60;5.32;;;15.70;99.90;;;;;;6248455;23;20023;-85
2023/06/20 01:02:55;;;;;;;7.47;4.93;;;15.70;99.90;;;;;;6248309;23;20055;-86
2023/06/20 01:05:26;;;;;;;7.07;4.40;;;15.70;99.90;;;;;;6248703;23;20519;-87
2023/06/20 01:08:16;;;;;;;7.57;5.05;;;15.80;99.90;;;;;;6221649;23;20020;-85
2023/06/20 01:10:48;;;;;;;8.30;5.03;;;15.80;99.90;;;;;;6247220;23;20077;-86
2023/06/20 01:13:37;;;;;;;7.63;4.95;;;15.80;99.90;;;;;;6221974;23;20055;-86
2023/06/20 01:16:20;;;;;;;7.07;5.50;;;15.90;99.90;;;;;;6247866;22;20027;-85
2023/06/20 01:19:35;;;;;;;10.05;5.95;;;15.90;99.90;;;;;;6248404;23;20035;-85
2023/06/20 01:22:08;;;;;;;8.13;5.72;;;15.90;99.90;;;;;;6077454;23;20085;-86
2023/06/20 01:24:59;;;;;;;9.30;5.25;;;15.90;99.90;;;;;;6125854;23;20092;-86
2023/06/20 01:27:47;;;;;;;7.50;4.97;;;15.90;99.90;;;;;;6125354;23;20085;-85
2023/06/20 01:30:45;;;;;;;7.50;4.97;;;15.90;99.90;;;;;;6125936;23;20026;-86
2023/06/20 01:33:14;;;;;;;6.75;5.05;;;15.90;99.90;;;;;;6125525;23;20413;-85
2023/06/20 01:35:44;;;;;;;6.82;5.55;;;15.90;99.90;;;;;;6124782;23;20026;-85
2023/06/20 01:38:12;;;;;;;8.02;4.85;;;15.90;99.90;;;;;;6125720;23;20025;-85
2023/06/20 01:40:39;;;;;;;7.72;5.45;;;15.90;99.90;;;;;;6126053;23;20025;-85
2023/06/20 01:43:07;;;;;;;7.25;4.88;;;15.90;99.90;;;;;;6126206;23;20026;-85
2023/06/20 01:45:38;;;;;;;7.68;4.82;;;15.80;99.90;;;;;;6125640;23;20053;-85
2023/06/20 01:48:06;;;;;;;7.13;5.22;;;15.80;99.90;;;;;;6124217;23;20026;-85
2023/06/20 01:50:33;;;;;;;6.82;4.82;;;15.80;99.90;;;;;;6099922;23;20476;-85
2023/06/20 01:53:01;;;;;;;6.55;4.95;;;15.80;99.90;;;;;;6124159;23;20029;-86
2023/06/20 01:55:30;;;;;;;6.45;4.72;;;15.80;99.90;;;;;;6100102;23;20040;-86
2023/06/20 01:57:58;;;;;;;6.70;5.00;;;15.80;99.90;;;;;;6161605;23;20020;-86
2023/06/20 02:00:26;;;;;;;5.43;4.13;;;15.80;99.90;;;;;;6247054;23;20023;-85
2023/06/20 02:02:55;;;;;;;7.10;5.07;;;15.80;99.90;;;;;;6219742;23;20099;-85
2023/06/20 02:05:22;;;;;;;6.43;5.50;;;15.80;99.90;;;;;;6219583;23;20024;-85
2023/06/20 02:07:49;;;;;;;8.65;5.35;;;15.80;99.90;;;;;;6246704;23;20369;-85
2023/06/20 02:10:16;;;;;;;6.80;5.20;;;15.80;99.90;;;;;;6246294;23;20020;-85
2023/06/20 02:12:44;;;;;;;7.70;5.35;;;15.80;99.90;;;;;;6246525;23;20066;-85
2023/06/20 02:15:12;;;;;;;9.15;6.60;;;15.90;99.90;;;;;;6246659;23;20031;-85
2023/06/20 02:17:38;;;;;;;9.48;6.60;;;15.90;99.90;;;;;;6246160;23;20019;-85
2023/06/20 02:20:05;;;;;;;10.40;7.38;;;15.80;99.90;;;;;;6219522;23;20043;-85
2023/06/20 02:22:32;;;;;;;13.10;8.88;;;15.90;99.90;;;;;;6246326;23;20012;-85
2023/06/20 02:25:06;;;;;;;10.75;9.02;;;15.90;99.90;;;;;;6246277;23;20027;-86
2023/06/20 02:27:32;;;;;;;10.17;8.70;;;15.90;99.90;;;;;;6219669;23;20095;-85
2023/06/20 02:30:00;;;;;;;12.10;10.07;;;15.90;99.90;;;;;;6246355;23;20262;-85
2023/06/20 02:32:26;;;;;;;11.18;9.82;;;15.90;99.90;;;;;;6218978;23;20099;-86
2023/06/20 02:34:55;;;;;;;11.32;9.40;;;15.90;99.90;;;;;;6219276;23;20020;-85
2023/06/20 02:37:24;;;;;;;10.45;7.78;;;15.90;99.90;;;;;;6246041;23;20028;-85
2023/06/20 02:39:50;;;;;;;11.75;8.15;;;15.90;99.90;;;;;;6219656;23;20066;-85
2023/06/20 02:42:17;;;;;;;9.63;7.38;;;15.90;99.90;;;;;;6245632;23;20099;-85
2023/06/20 02:44:43;;;;;;;10.52;8.40;;;15.90;99.90;;;;;;6246612;23;20024;-85
2023/06/20 02:47:19;;;;;;;8.23;6.95;;;15.90;99.90;;;;;;6246025;23;20048;-86
2023/06/20 02:49:50;;;;;;;8.02;5.65;;;16.00;99.90;;;;;;6246402;23;20013;-85
2023/06/20 02:52:27;;;;;;;6.85;5.53;;;16.00;99.90;;;;;;6218941;23;20509;-85
2023/06/20 02:55:30;;;;;;;8.82;4.90;;;16.00;99.90;;;;;;6245909;23;20454;-85
2023/06/20 02:57:59;;;;;;;6.78;4.97;;;16.00;99.90;;;;;;6218102;23;20031;-85
2023/06/20 03:00:26;;;;;;;5.30;4.53;;;16.10;99.90;;;;;;6246243;23;20011;-87
2023/06/20 03:02:59;;;;;;;8.25;4.93;;;16.10;99.90;;;;;;6218799;23;20024;-86
2023/06/20 03:05:28;;;;;;;5.38;4.28;;;16.10;99.90;;;;;;6246420;23;20012;-85
2023/06/20 03:07:55;;;;;;;7.05;4.50;;;16.20;99.90;;;;;;6221252;23;20043;-86
2023/06/20 03:10:23;;;;;;;5.35;3.97;;;16.20;99.90;;;;;;6247698;23;20012;-85
2023/06/20 03:12:48;;;;;;;5.75;3.95;;;16.20;99.90;;;;;;6247020;23;20020;-86
2023/06/20 03:15:14;;;;;;;4.93;4.00;;;16.20;99.90;;;;;;6193779;23;20343;-90
2023/06/20 03:17:40;;;;;;;6.28;4.50;;;16.20;99.90;;;;;;6218642;23;20107;-86
2023/06/20 03:20:08;;;;;;;5.22;4.25;;;16.30;99.90;;;;;;6246145;23;20012;-85
2023/06/20 03:22:34;;;;;;;8.68;5.05;;;16.20;99.90;;;;;;6246338;23;20020;-85
2023/06/20 03:24:59;;;;;;;9.25;5.88;;;16.30;99.90;;;;;;6246226;23;20016;-87
2023/06/20 03:27:25;;;;;;;9.73;5.85;;;16.30;99.90;;;;;;6245974;23;20032;-86
2023/06/20 03:29:51;;;;;;;11.15;5.60;;;16.30;99.90;;;;;;6219503;23;20573;-88
2023/06/20 03:32:16;;;;;;;7.70;5.68;;;16.20;99.90;;;;;;6245473;23;20081;-87
2023/06/20 03:34:42;;;;;;;8.32;5.90;;;16.30;99.90;;;;;;6245951;23;20021;-89
2023/06/20 03:37:08;;;;;;;6.85;5.40;;;16.30;99.90;;;;;;6245969;23;20024;-88
2023/06/20 03:39:33;;;;;;;8.63;6.03;;;16.30;99.90;;;;;;6218897;23;20023;-86
2023/06/20 03:41:59;;;;;;;8.90;5.60;;;16.30;99.90;;;;;;6245848;23;20020;-89
2023/06/20 03:44:25;;;;;;;7.15;5.72;;;16.30;99.90;;;;;;6246262;23;20016;-88
2023/06/20 03:46:50;;;;;;;7.70;6.38;;;16.30;99.90;;;;;;6245713;22;20055;-89
2023/06/20 03:49:16;;;;;;;8.75;5.78;;;16.30;99.90;;;;;;6246050;23;20059;-89
2023/06/20 03:51:42;;;;;;;8.57;6.25;;;16.40;99.90;;;;;;6218083;23;20024;-89
2023/06/20 03:54:07;;;;;;;7.93;6.10;;;16.40;99.90;;;;;;6219051;23;20020;-86
2023/06/20 03:56:33;;;;;;;8.35;5.50;;;16.40;99.90;;;;;;6218923;23;20028;-90
2023/06/20 03:58:59;;;;;;;10.00;6.80;;;16.40;99.90;;;;;;6218910;23;20028;-88
2023/06/20 04:01:24;;;;;;;11.23;6.22;;;16.40;99.90;;;;;;6245752;23;20024;-88
2023/06/20 04:03:54;;;;;;;8.05;6.38;;;16.40;99.90;;;;;;6247019;23;20027;-86
2023/06/20 04:06:20;;;;;;;8.45;6.25;;;16.40;99.90;;;;;;6220251;23;20021;-86
2023/06/20 04:08:45;;;;;;;9.43;6.65;;;16.40;99.90;;;;;;6247068;23;20074;-85
2023/06/20 04:11:11;;;;;;;7.95;6.13;;;16.50;99.90;;;;;;6245926;23;20031;-85
2023/06/20 04:13:37;;;;;;;8.30;5.97;;;16.50;99.90;;;;;;6218759;23;20016;-86
2023/06/20 04:16:02;;;;;;;10.23;6.90;;;16.50;99.90;;;;;;6219417;22;20024;-85
2023/06/20 04:18:28;;;;;;;9.20;6.50;;;16.50;99.90;;;;;;6246211;23;20042;-84
2023/06/20 04:20:54;;;;;;;9.90;6.40;;;16.50;99.90;;;;;;6220667;23;20020;-86
2023/06/20 04:23:20;;;;;;;9.98;7.25;;;16.60;99.90;;;;;;6223158;23;20012;-85
2023/06/20 04:25:46;;;;;;;9.32;6.82;;;16.60;99.90;;;;;;6249741;23;20024;-85
2023/06/20 04:28:11;;;;;;;8.50;6.35;;;16.70;99.90;;;;;;6249559;23;20095;-86
2023/06/20 04:30:37;;;;;;;12.85;7.85;;;16.70;99.90;;;;;;6247775;23;20016;-85
2023/06/20 04:33:03;;;;;;;9.80;6.78;;;16.80;99.90;;;;;;6246787;23;20335;-85
2023/06/20 04:35:31;;;;;;;9.00;7.25;;;16.90;99.90;;;;;;6193762;23;20043;-86
2023/06/20 04:38:01;;;;;;;12.00;9.07;;;17.00;99.90;;;;;;6219036;23;20020;-85
2023/06/20 04:40:27;;;;;;;12.32;9.48;;;17.00;99.90;;;;;;6245143;23;20024;-86
2023/06/20 04:42:52;;;;;;;12.43;8.82;;;17.10;99.90;;;;;;6245831;23;20066;-85
2023/06/20 04:45:18;;;;;;;10.90;8.38;;;17.10;99.90;;;;;;6246112;23;20056;-86
2023/06/20 04:47:44;;;;;;;10.55;7.40;;;17.20;99.90;;;;;;6218930;23;20016;-86
2023/06/20 04:50:10;;;;;;;12.40;9.45;;;17.30;99.90;;;;;;6218181;23;20332;-85
2023/06/20 04:52:37;;;;;;;11.40;8.60;;;17.30;99.90;;;;;;6245423;23;20062;-85
2023/06/20 04:55:03;;;;;;;11.63;8.25;;;17.40;99.90;;;;;;6245198;23;20059;-87
2023/06/20 04:57:33;;;;;;;9.02;7.50;;;17.40;99.90;;;;;;6245615;23;20066;-85
2023/06/20 04:59:59;;;;;;;10.00;7.78;;;17.60;99.90;;;;;;6218230;23;20024;-85
2023/06/20 05:02:25;;;;;;;11.77;8.02;;;17.60;99.90;;;;;;6218701;23;20063;-85
2023/06/20 05:04:51;;;;;;;9.43;7.60;;;17.70;99.90;;;;;;6245523;23;20168;-86
2023/06/20 05:07:17;;;;;;;11.13;7.97;;;17.70;99.90;;;;;;6245103;23;20016;-86
2023/06/20 05:09:43;;;;;;;10.05;7.03;;;17.80;99.90;;;;;;6245473;23;20042;-85
2023/06/20 05:12:09;;;;;;;8.13;6.57;;;17.80;99.90;;;;;;6218232;23;20018;-85
2023/06/20 05:14:35;;;;;;;8.68;6.72;;;17.90;99.90;;;;;;6245960;23;20064;-86
2023/06/20 05:17:01;;;;;;;8.68;7.05;;;17.90;99.90;;;;;;6218364;23;20027;-86
2023/06/20 05:19:26;;;;;;;9.52;7.22;;;17.90;99.90;;;;;;6245209;23;20351;-86
2023/06/20 05:21:52;;;;;;;9.75;7.30;;;17.90;99.90;;;;;;6246644;23;20434;-87
2023/06/20 05:24:18;;;;;;;7.95;6.78;;;17.90;99.90;;;;;;6220633;23;20020;-88
2023/06/20 05:26:44;;;;;;;8.50;6.20;;;17.90;99.90;;;;;;6248331;23;20056;-86
2023/06/20 05:29:09;;;;;;;9.05;6.72;;;17.90;99.90;;;;;;6248657;23;20139;-87
2023/06/20 05:31:40;;;;;;;10.50;6.45;;;17.90;99.90;;;;;;6195829;23;20024;-86
2023/06/20 05:34:06;;;;;;;8.23;6.38;;;17.90;99.90;;;;;;6220815;23;20028;-85
2023/06/20 05:36:32;;;;;;;10.13;7.50;;;18.00;99.90;;;;;;6220346;23;20052;-84
2023/06/20 05:38:58;;;;;;;8.68;6.75;;;18.10;99.90;;;;;;6219500;23;20028;-86
2023/06/20 05:41:27;;;;;;;9.20;6.03;;;18.10;99.90;;;;;;6219955;23;20147;-87
2023/06/20 05:43:52;;;;;;;8.18;5.28;;;18.20;99.90;;;;;;6247184;23;20035;-85
2023/06/20 05:46:18;;;;;;;12.50;6.88;;;18.20;99.90;;;;;;6248529;23;20024;-91
2023/06/20 05:48:44;;;;;;;7.95;6.10;;;18.20;99.90;;;;;;6247677;23;20046;-87
2023/06/20 05:51:14;;;;;;;8.05;5.70;;;18.30;99.90;;;;;;6220677;23;20509;-88
2023/06/20 05:53:43;;;;;;;7.53;6.30;;;18.30;99.90;;;;;;6247458;23;20062;-91
2023/06/20 05:56:10;;;;;;;7.97;5.00;;;18.30;99.90;;;;;;6221284;23;20020;-86
2023/06/20 05:58:38;;;;;;;6.63;4.75;;;18.40;99.90;;;;;;6248531;23;20039;-89
2023/06/20 06:01:04;;;;;;;6.10;4.90;;;18.40;99.90;;;;;;6222316;23;20110;-89
2023/06/20 06:03:34;;;;;;;6.30;4.90;;;18.40;99.90;;;;;;6221458;23;20012;-89
2023/06/20 06:06:01;;;;;;;8.65;6.25;;;18.50;99.90;;;;;;6247284;23;20320;-92
2023/06/20 06:08:26;;;;;;;7.53;4.45;;;18.40;99.90;;;;;;6246685;23;20389;-87
2023/06/20 06:10:52;;;;;;;9.23;5.40;;;18.50;99.90;;;;;;6220729;23;20099;-88
2023/06/20 06:13:18;;;;;;;6.78;4.90;;;18.50;99.90;;;;;;6219694;23;20093;-90
2023/06/20 06:15:44;;;;;;;6.35;3.97;;;18.60;99.90;;;;;;6197920;23;20020;-91
2023/06/20 06:18:10;;;;;;;4.78;3.75;;;18.60;99.90;;;;;;6219698;23;20028;-89
2023/06/20 06:20:35;;;;;;;5.03;4.28;;;18.70;99.90;;;;;;6220712;23;20012;-89
2023/06/20 06:23:01;;;;;;;5.70;4.22;;;18.70;99.90;;;;;;6248216;23;20028;-88
2023/06/20 06:25:29;;;;;;;5.18;3.92;;;18.80;99.90;;;;;;6248790;23;20028;-90
2023/06/20 06:27:55;;;;;;;5.15;3.95;;;18.80;99.90;;;;;;6195462;23;20074;-93
2023/06/20 06:30:21;;;;;;;5.57;3.97;;;18.80;99.90;;;;;;6220775;23;20071;-91
2023/06/20 06:32:47;;;;;;;8.63;5.07;;;18.80;99.90;;;;;;6247273;23;20016;-91
2023/06/20 06:35:15;;;;;;;7.40;5.25;;;18.90;99.90;;;;;;6220988;23;20020;-94
2023/06/20 06:37:41;;;;;;;7.78;5.40;;;18.90;99.90;;;;;;6221179;23;20086;-89
2023/06/20 06:40:09;;;;;;;7.57;5.90;;;19.00;99.90;;;;;;6220976;23;20395;-89
2023/06/20 06:42:42;;;;;;;7.50;5.60;;;19.00;99.90;;;;;;6221697;23;20475;-92
2023/06/20 06:45:09;;;;;;;6.25;5.07;;;19.10;99.90;;;;;;6220588;23;20040;-88
2023/06/20 06:47:34;;;;;;;9.80;7.00;;;19.10;99.90;;;;;;6195013;23;20020;-91
2023/06/20 06:50:00;;;;;;;7.47;5.57;;;19.20;99.90;;;;;;6220634;23;20027;-90
2023/06/20 06:52:34;;;;;;;6.07;4.80;;;19.30;99.90;;;;;;6219376;23;20024;-89
2023/06/20 06:55:00;;;;;;;8.00;5.80;;;19.50;99.90;;;;;;6195051;23;20355;-89
2023/06/20 06:57:32;;;;;;;8.82;6.20;;;19.40;99.90;;;;;;6194828;23;20031;-91
2023/06/20 06:59:58;;;;;;;6.15;5.00;;;19.50;99.90;;;;;;6246679;23;20099;-88
2023/06/20 07:02:26;;;;;;;10.18;6.25;;;19.60;99.90;;;;;;6220742;23;20048;-90
2023/06/20 07:04:52;;;;;;;8.23;5.97;;;19.70;99.90;;;;;;6220465;23;20095;-88
2023/06/20 07:07:17;;;;;;;8.75;6.60;;;19.80;99.90;;;;;;6195502;23;20109;-87
2023/06/20 07:09:43;;;;;;;9.43;6.40;;;19.80;99.90;;;;;;6221303;23;20035;-90
2023/06/20 07:12:09;;;;;;;8.10;6.15;;;19.90;99.90;;;;;;6247448;23;20032;-84
2023/06/20 07:14:35;;;;;;;7.10;4.97;;;20.00;99.90;;;;;;6248009;23;20055;-89
2023/06/20 07:17:00;;;;;;;7.22;6.13;;;20.10;99.90;;;;;;6224610;23;20023;-92
2023/06/20 07:19:26;;;;;;;8.00;6.25;;;20.20;99.90;;;;;;6248159;23;20089;-92
2023/06/20 07:21:52;;;;;;;9.95;7.10;;;20.40;99.90;;;;;;6222143;23;20462;-84
2023/06/20 07:24:18;;;;;;;10.80;7.03;;;20.50;99.90;;;;;;6232605;23;20035;-86
2023/06/20 07:26:44;;;;;;;9.38;6.60;;;20.50;99.90;;;;;;6258039;23;20020;-86
2023/06/20 07:29:09;;;;;;;12.25;7.72;;;20.60;99.90;;;;;;6222747;23;20042;-89
2023/06/20 07:31:35;;;;;;;8.90;6.65;;;20.70;99.90;;;;;;6247369;23;20047;-85
2023/06/20 07:34:00;;;;;;;9.88;6.60;;;20.80;99.90;;;;;;6246633;23;20030;-85
2023/06/20 07:36:26;;;;;;;8.95;6.75;;;20.90;99.90;;;;;;6194865;23;20343;-90
2023/06/20 07:38:52;;;;;;;8.68;6.32;;;21.00;99.90;;;;;;6247007;23;20023;-90
2023/06/20 07:41:17;;;;;;;10.82;5.90;;;21.10;99.90;;;;;;6219983;23;20020;-93
2023/06/20 07:43:43;;;;;;;6.63;4.65;;;21.10;99.90;;;;;;6246740;23;20017;-87
2023/06/20 07:46:09;;;;;;;8.30;5.80;;;21.20;99.90;;;;;;6219842;23;20025;-84
2023/06/20 07:48:35;;;;;;;11.05;7.38;;;21.30;99.90;;;;;;6248466;23;20035;-87
2023/06/20 07:51:01;;;;;;;10.75;7.75;;;21.30;99.90;;;;;;6248121;23;20327;-88
2023/06/20 07:53:26;;;;;;;11.35;8.10;;;21.30;99.90;;;;;;6246288;23;20052;-91
2023/06/20 07:55:55;;;;;;;8.95;7.15;;;21.40;99.90;;;;;;6246386;23;20027;-91
2023/06/20 07:58:21;;;;;;;9.80;6.45;;;21.50;99.90;;;;;;6245338;23;20031;-85
2023/06/20 08:00:47;;;;;;;9.18;7.38;;;21.60;99.90;;;;;;6218814;23;20027;-89
2023/06/20 08:03:13;;;;;;;7.57;6.43;;;21.70;99.90;;;;;;6218944;23;20024;-89
2023/06/20 08:05:39;;;;;;;6.47;4.38;;;21.80;99.90;;;;;;6245788;23;20056;-89
2023/06/20 08:08:04;;;;;;;5.55;4.53;;;22.00;99.90;;;;;;6246390;23;20077;-89
2023/06/20 08:10:30;;;;;;;6.70;4.35;;;22.10;99.90;;;;;;6221172;23;20067;-88
2023/06/20 08:12:56;;;;;;;5.45;4.22;;;22.20;99.90;;;;;;6247147;23;20145;-91
2023/06/20 08:15:22;;;;;;;7.00;4.28;;;22.20;99.90;;;;;;6248829;23;20043;-86
2023/06/20 08:17:47;;;;;;;7.15;4.07;;;22.40;99.90;;;;;;6219449;23;20024;-91
2023/06/20 08:20:13;;;;;;;4.78;3.35;;;22.50;99.90;;;;;;6220966;23;20090;-91
2023/06/20 08:22:39;;;;;;;6.57;3.83;;;22.60;99.90;;;;;;6219803;23;20031;-85
2023/06/20 08:25:05;;;;;;;4.70;4.15;;;22.70;99.90;;;;;;6247174;23;20063;-89
2023/06/20 08:27:32;;;;;;;6.72;3.63;;;22.70;99.90;;;;;;6221051;23;20028;-86
2023/06/20 08:29:57;;;;;;;5.07;3.50;;;22.80;99.90;;;;;;6246345;23;20016;-90
2023/06/20 08:32:23;;;;;;;6.80;4.18;;;23.00;99.90;;;;;;6247110;23;20338;-88
2023/06/20 08:34:49;;;;;;;5.18;3.88;;;23.10;99.90;;;;;;6246594;23;20016;-86
2023/06/20 08:37:16;;;;;;;6.45;4.07;;;23.20;99.90;;;;;;6245723;23;20020;-85
2023/06/20 08:39:42;;;;;;;7.57;4.45;;;23.40;99.90;;;;;;6218783;23;20012;-85
2023/06/20 08:42:09;;;;;;;8.95;6.45;;;23.50;99.90;;;;;;6218391;23;20095;-87
2023/06/20 08:44:36;;;;;;;4.82;3.78;;;23.50;99.90;;;;;;6246108;23;20142;-86
2023/06/20 08:47:02;;;;;;;6.35;4.32;;;23.50;99.90;;;;;;6245487;23;20134;-86
2023/06/20 08:49:28;;;;;;;4.95;3.78;;;23.60;99.90;;;;;;6244968;23;20142;-89
2023/06/20 08:52:01;;;;;;;5.57;4.63;;;23.60;99.90;;;;;;6245924;23;20048;-83
2023/06/20 08:54:34;;;;;;;6.18;4.45;;;23.60;99.90;;;;;;6245435;23;20024;-84
2023/06/20 08:57:00;;;;;;;5.85;3.97;;;23.60;99.90;;;;;;6220574;23;20056;-82
2023/06/20 08:59:25;;;;;;;4.95;3.38;;;23.60;99.90;;;;;;6247400;23;20053;-84
2023/06/20 09:01:51;;;;;;;6.13;4.20;;;23.70;99.90;;;;;;6247603;23;20339;-91
2023/06/20 09:04:18;;;;;;;5.65;3.42;;;23.70;99.90;;;;;;6220376;23;20024;-84
2023/06/20 09:06:45;;;;;;;6.38;4.00;;;23.80;99.90;;;;;;6248056;23;20485;-86
2023/06/20 09:09:17;;;;;;;6.75;4.50;;;23.90;99.90;;;;;;6248528;23;20016;-85
2023/06/20 09:11:52;;;;;;;4.78;4.00;;;23.90;99.90;;;;;;6247145;23;20466;-85
2023/06/20 09:14:18;;;;;;;6.93;4.57;;;23.90;99.90;;;;;;6247656;23;20514;-86
2023/06/20 09:16:47;;;;;;;6.20;4.05;;;23.90;99.90;;;;;;6220095;23;20027;-91
2023/06/20 09:19:13;;;;;;;4.80;3.28;;;23.90;99.90;;;;;;6247883;23;20031;-83
2023/06/20 09:21:39;;;;;;;5.30;3.67;;;24.00;99.90;;;;;;6248034;23;20020;-87
2023/06/20 09:24:06;;;;;;;3.97;3.00;;;24.10;99.90;;;;;;6248645;23;20403;-90
2023/06/20 09:26:32;;;;;;;6.05;4.40;;;24.20;99.90;;;;;;6249335;23;20067;-90
2023/06/20 09:29:13;;;;;;;5.15;3.67;;;24.30;99.90;;;;;;6248694;23;20063;-90
2023/06/20 09:31:49;;;;;;;4.72;2.90;;;24.30;99.90;;;;;;6248314;23;20015;-82
2023/06/20 09:34:18;;;;;;;5.32;4.18;;;24.60;99.90;;;;;;6249385;23;20023;-90
2023/06/20 09:36:45;;;;;;;3.97;3.13;;;24.50;99.90;;;;;;6246844;23;20573;-86
2023/06/20 09:39:15;;;;;;;4.45;3.50;;;24.70;99.90;;;;;;6247321;23;20455;-83
2023/06/20 09:41:49;;;;;;;4.82;3.95;;;24.80;99.90;;;;;;6247156;23;20031;-86
2023/06/20 09:44:19;;;;;;;6.45;3.85;;;24.90;99.90;;;;;;6247547;23;20022;-91
2023/06/20 09:46:45;;;;;;;4.43;3.83;;;24.90;99.90;;;;;;6246024;23;20103;-84
2023/06/20 09:49:13;;;;;;;5.43;3.28;;;24.90;99.90;;;;;;6246763;23;20102;-87
2023/06/20 09:51:46;;;;;;;7.13;3.30;;;24.90;99.90;;;;;;6246873;23;20078;-85
2023/06/20 09:54:15;;;;;;;5.20;3.45;;;25.00;99.90;;;;;;6220141;23;20043;-85
2023/06/20 09:56:52;;;;;;;3.85;3.45;;;25.20;99.90;;;;;;6246856;23;20016;-88
2023/06/20 09:59:21;;;;;;;6.55;3.72;;;25.10;99.90;;;;;;6246537;23;20095;-87
2023/06/20 10:01:48;;;;;;;8.27;4.07;;;25.20;99.90;;;;;;6246341;23;20017;-86
2023/06/20 10:04:15;;;;;;;4.53;3.25;;;25.10;99.90;;;;;;6246323;23;20028;-86
2023/06/20 10:06:41;;;;;;;4.22;3.78;;;25.20;99.90;;;;;;6245358;23;20059;-85
2023/06/20 10:09:07;;;;;;;7.22;3.72;;;25.20;99.90;;;;;;6218690;23;20024;-86
2023/06/20 10:11:37;;;;;;;3.80;2.67;;;25.30;99.90;;;;;;6246507;23;20024;-88
2023/06/20 10:14:04;;;;;;;4.32;3.53;;;25.50;99.90;;;;;;6249127;23;20028;-90
2023/06/20 10:16:31;;;;;;;3.70;3.05;;;25.60;99.90;;;;;;6252007;23;20020;-87
2023/06/20 10:18:56;;;;;;;7.13;4.85;;;25.80;99.90;;;;;;6249705;23;20020;-87
2023/06/20 10:21:55;;;;;;;3.88;2.90;;;26.10;99.90;;;;;;6249566;23;20020;-91
2023/06/20 10:24:28;;;;;;;3.60;2.88;;;26.50;99.90;;;;;;6227113;23;20023;-89
2023/06/20 10:26:59;;;;;;;3.58;2.47;;;26.70;99.90;;;;;;6227509;23;20020;-90
2023/06/20 10:29:33;;;;;;;4.28;3.22;;;27.00;99.90;;;;;;6225893;23;20016;-90
2023/06/20 10:32:08;;;;;;;4.50;2.40;;;27.20;99.90;;;;;;6199036;23;20027;-90
2023/06/20 10:34:40;;;;;;;3.72;2.47;;;27.30;99.90;;;;;;6224116;23;20095;-91
2023/06/20 10:40:47;;;;;;;2.80;2.35;;;27.60;99.90;;;;;;6245776;23;20471;-92
2023/06/20 10:43:21;;;;;;;4.70;3.35;;;27.90;99.90;;;;;;6246786;23;20055;-90
2023/06/20 10:45:59;;;;;;;4.43;3.70;;;27.80;99.90;;;;;;6196040;23;20020;-92
2023/06/20 10:48:26;;;;;;;3.28;2.60;;;27.70;99.90;;;;;;6219191;23;20023;-87
2023/06/20 10:51:01;;;;;;;3.10;2.50;;;27.80;99.90;;;;;;6246174;23;20016;-87
2023/06/20 10:53:28;;;;;;;3.90;2.72;;;28.00;99.90;;;;;;6193850;23;20099;-87
2023/06/20 10:55:54;;;;;;;3.42;2.17;;;28.10;99.90;;;;;;6218674;23;20020;-87
2023/06/20 10:58:19;;;;;;;2.90;2.20;;;28.30;99.90;;;;;;6218866;23;20027;-86
2023/06/20 11:00:45;;;;;;;208.15;187.40;;;28.40;99.90;;;;;;6246069;23;20016;-86
2023/06/20 11:03:11;;;;;;;2.72;2.13;;;28.70;99.90;;;;;;6246006;23;20024;-83
2023/06/20 11:05:37;;;;;;;2.47;1.90;;;28.90;99.90;;;;;;6218929;23;20099;-84
2023/06/20 11:08:10;;;;;;;3.25;2.45;;;29.00;99.90;;;;;;6245470;23;20023;-83
2023/06/20 11:10:37;;;;;;;4.00;2.10;;;29.10;99.90;;;;;;6218922;23;20020;-83
2023/06/20 11:13:05;;;;;;;2.72;1.90;;;29.00;99.90;;;;;;6245710;23;20103;-83
2023/06/20 11:15:34;;;;;;;2.45;2.00;;;29.20;99.90;;;;;;6245994;23;20020;-84
2023/06/20 11:18:05;;;;;;;2.97;2.63;;;29.10;99.90;;;;;;6245848;23;20024;-83
2023/06/20 11:20:36;;;;;;;3.47;2.67;;;29.20;99.90;;;;;;6245541;23;20023;-83
2023/06/20 11:23:04;;;;;;;3.90;2.60;;;29.20;99.90;;;;;;6245713;23;20038;-84
2023/06/20 11:25:32;;;;;;;2.92;2.58;;;29.30;99.90;;;;;;6245882;23;20354;-82
2023/06/20 11:28:08;;;;;;;2.80;2.40;;;29.40;99.90;;;;;;6245163;22;20442;-83
2023/06/20 11:30:39;;;;;;;3.97;2.00;;;29.30;99.90;;;;;;6245563;23;20012;-82
2023/06/20 11:33:08;;;;;;;3.17;2.22;;;29.40;99.90;;;;;;6245759;23;20074;-84
2023/06/20 11:35:56;;;;;;;3.33;2.67;;;29.70;99.90;;;;;;6245572;23;20020;-83
2023/06/20 11:38:28;;;;;;;6.65;3.03;;;29.50;99.80;;;;;;6244651;23;20024;-82
2023/06/20 11:41:09;;;;;;;4.15;2.60;;;29.40;99.90;;;;;;6245696;23;20023;-82
2023/06/20 11:43:41;;;;;;;2.80;2.40;;;29.70;99.70;;;;;;6244755;23;20027;-84
2023/06/20 11:46:08;;;;;;;2.45;2.15;;;29.60;99.90;;;;;;6245260;23;20020;-84
2023/06/20 11:48:35;;;;;;;3.05;2.10;;;29.70;99.90;;;;;;6218445;23;20113;-84
2023/06/20 11:51:06;;;;;;;2.58;2.10;;;30.00;99.90;;;;;;6245753;23;20019;-84
2023/06/20 11:53:36;;;;;;;3.40;2.47;;;30.10;99.40;;;;;;6245291;23;20027;-88
2023/06/20 11:56:07;;;;;;;3.00;2.45;;;30.00;99.00;;;;;;6218887;23;20024;-86
2023/06/20 11:58:43;;;;;;;3.00;2.45;;;30.00;98.70;;;;;;6218149;23;20481;-85
2023/06/20 12:01:20;;;;;;;3.80;2.78;;;30.20;99.40;;;;;;6245780;23;20016;-86
2023/06/20 12:04:05;;;;;;;3.40;2.40;;;30.60;99.70;;;;;;6245477;23;20042;-86
2023/06/20 12:06:36;;;;;;;4.43;3.08;;;30.60;98.90;;;;;;6244933;23;20028;-86
2023/06/20 12:09:09;;;;;;;3.05;2.67;;;30.80;98.60;;;;;;6217720;23;20028;-85
2023/06/20 12:11:44;;;;;;;5.35;3.30;;;30.90;98.60;;;;;;6244740;23;20048;-86
2023/06/20 12:14:10;;;;;;;3.33;2.83;;;30.70;98.30;;;;;;6244112;23;20055;-87
2023/06/20 12:16:36;;;;;;;3.83;2.50;;;30.70;98.90;;;;;;6217887;23;20389;-83
2023/06/20 12:19:02;;;;;;;3.20;2.45;;;30.90;98.30;;;;;;6244017;23;20012;-86
2023/06/20 12:21:28;;;;;;;3.67;3.20;;;30.90;98.20;;;;;;6215846;23;20468;-87
2023/06/20 12:23:53;;;;;;;3.00;2.70;;;30.70;98.90;;;;;;6244785;23;20272;-85
2023/06/20 12:26:19;;;;;;;3.85;2.70;;;30.90;98.90;;;;;;6244624;23;20074;-84
2023/06/20 12:28:45;;;;;;;2.70;2.50;;;31.30;98.50;;;;;;6244053;23;20027;-85
2023/06/20 12:31:12;;;;;;;5.03;3.17;;;31.20;97.90;;;;;;6217763;23;20027;-88
2023/06/20 12:33:38;;;;;;;4.40;3.60;;;31.10;98.30;;;;;;6244981;23;20023;-87
2023/06/20 12:36:05;;;;;;;4.60;3.28;;;31.00;98.10;;;;;;6217335;23;20074;-87
2023/06/20 12:38:31;;;;;;;3.88;3.47;;;30.50;98.10;;;;;;6218498;23;20374;-87
2023/06/20 12:41:00;;;;;;;4.85;3.60;;;30.30;98.40;;;;;;6218246;23;20347;-87
2023/06/20 12:43:26;;;;;;;5.85;3.65;;;30.20;98.50;;;;;;6217057;23;20104;-87
2023/06/20 12:45:58;;;;;;;4.50;3.85;;;30.10;99.10;;;;;;6245239;23;20090;-88
2023/06/20 12:48:40;;;;;;;4.93;3.20;;;30.10;98.80;;;;;;6188200;23;20021;-87
2023/06/20 12:51:06;;;;;;;4.22;3.80;;;29.90;99.30;;;;;;6190605;23;20021;-93
2023/06/20 12:57:12;;;;;;;4.05;3.65;;;29.30;99.40;;;;;;6190514;23;20016;-86
2023/06/20 12:59:38;;;;;;;5.57;4.97;;;29.00;99.90;;;;;;6183987;23;20021;-91